Pinawa, Canada
Current Conditions -  °F | °C
As of 12:14 PM on Monday 24 Nov 2014 (Local Time) from CYWG Reporting Station
Few Clouds Few Clouds  
Wind Chill: -8°   Ceiling: Unl
Heat Index:   Visibility: 15mi
Dew Point:   Wind: 15mph
Humidity: 73%   Direction: 330°NNW
Pressure: 29.88"   Gusts: NA
Location:  50.15°N, 95.88°W
Report Text: CYWG 241814Z 33013KT 15SM FEW250 M13/M17 A2988 RMK CI1 SLP138
Loading
Personal Weather Stations






























Interactive Weather Map New forecast layout! Learn more

10-Day Weather Forecast

Advertisements
Track Severe Weather on mobile